Portada
METAR-TAF:

METAR-TAF

Aeroports :

Marsella, França

latitud: 43-27N, longitud: 005-14E, altitud: 6 m

Observació

L'informe es va fer fa 32 minuts, a les 16:30 UTC
Vent 5 kt del Nord/Nord-Oest, variant entre Oest i Nord
Temperatura 8°C
Humitat 57%
Pressió 1020 hPa
Visibilitat 10 km o més
Escasses núvols a una alçada de 2000 ft

METAR: LFML 101630Z AUTO 33005KT 280V350 9999 FEW020 08/M00 Q1020 NOSIG

Hora: 18:02 (17:02 UTC)

Pronòstic

L'informe es va fer fa 3 hores i 2 minuts, a les 14:00 UTC
Pronòstic vàlid del 10 a les 15 UTC al 11 a les 21 UTC
Vent 15 kt del Nord/Nord-Oest
Visibilitat 10 km o més
sense núvols per sota de 1500 mi sense presència de cumulonimbus.
Evolucionant progressivament
l' 10 a les 17 UTC al 10 a les 19 UTC
Vent 2 kt amb direcció variable
Temporalment
l' 11 a les 09 UTC al 11 a les 20 UTC
Cel ennuvolat a una alçada de 2000 ft
pluja

TAF: LFML 101400Z 1015/1121 33015KT CAVOK TX10/1114Z TN04/1024Z BECMG 1017/1019 VRB02KT TEMPO 1109/1120 RA BKN020

Observacions i pronòstics meteorològics de més de 4000 aeroports (METAR i TAF).

Les estacions disponibles són els punts grocs i vermells al mapa.

Posi el ratolí al punt desitjat per veure el nom de l'estació.

Feu clic per veure les observacions i els pronòstics meteorològics.

Per canviar el mapa: feu clic els botons verds amb una creu de color negre per apropar; al botó verd amb un guió per allunyar la imatge; o en les fletxes verdes per a mapes adjacents.


METAR-TAF: